Time;durP1;ratioP1;P1;durP2;ratioP2;P2;SDS_P1;SDS_P2;PMS_P1;PMS_P2;Temp;Humidity;BMP_temperature;BMP_pressure;BME280_temperature;BME280_humidity;BME280_pressure;Samples;Min_cycle;Max_cycle;Signal;HPM_P1;HPM_P2
2021/07/23 00:02:19;;;;;;;16.80;14.10;;;;;;;21.36;57.24;95527.03;5071041;28;20386;-66
2021/07/23 00:04:45;;;;;;;14.93;13.50;;;;;;;20.95;58.44;95524.03;5064643;28;20041;-66
2021/07/23 00:07:10;;;;;;;15.65;13.93;;;;;;;20.82;58.86;95536.94;5061858;28;20040;-66
2021/07/23 00:09:36;;;;;;;15.30;13.70;;;;;;;20.97;58.19;95524.44;5069621;28;20036;-66
2021/07/23 00:12:01;;;;;;;14.88;13.32;;;;;;;21.35;56.58;95512.72;5068433;28;20051;-66
2021/07/23 00:14:27;;;;;;;14.23;13.00;;;;;;;21.53;55.91;95526.50;5070957;28;20029;-66
2021/07/23 00:16:52;;;;;;;15.80;14.15;;;;;;;21.57;55.72;95505.69;5069474;28;20047;-67
2021/07/23 00:19:18;;;;;;;14.63;12.98;;;;;;;21.65;55.36;95514.69;5055976;28;20025;-66
2021/07/23 00:21:43;;;;;;;15.80;14.23;;;;;;;21.65;55.63;95514.69;5049299;28;20045;-66
2021/07/23 00:24:08;;;;;;;14.55;13.15;;;;;;;21.63;55.63;95506.94;5052423;28;20048;-66
2021/07/23 00:26:34;;;;;;;16.05;14.48;;;;;;;21.57;55.88;95510.31;5069429;28;20501;-67
2021/07/23 00:28:59;;;;;;;15.43;13.82;;;;;;;21.59;55.68;95508.81;5069181;28;20040;-66
2021/07/23 00:31:24;;;;;;;13.75;12.45;;;;;;;21.56;55.84;95504.13;5066847;28;20056;-67
2021/07/23 00:33:50;;;;;;;16.75;14.55;;;;;;;21.48;56.05;95502.47;5069066;28;20040;-66
2021/07/23 00:36:15;;;;;;;16.40;14.90;;;;;;;21.35;56.41;95493.00;5069485;28;20051;-66
2021/07/23 00:38:40;;;;;;;16.92;14.55;;;;;;;21.41;56.72;95500.44;5071107;28;20058;-66
2021/07/23 00:41:06;;;;;;;15.95;14.35;;;;;;;21.25;56.88;95487.03;5067192;28;20033;-66
2021/07/23 00:43:31;;;;;;;16.27;14.63;;;;;;;21.34;56.96;95499.53;5066777;28;20033;-66
2021/07/23 00:45:57;;;;;;;16.80;14.93;;;;;;;20.96;57.50;95450.66;5058774;28;20033;-69
2021/07/23 00:48:23;;;;;;;15.10;13.57;;;;;;;21.25;59.50;95500.56;5054400;28;20069;-69
2021/07/23 00:50:49;;;;;;;17.45;15.27;;;;;;;21.16;58.87;95493.84;5067948;28;20013;-69
2021/07/23 00:53:15;;;;;;;16.65;15.20;;;;;;;21.13;58.21;95479.09;5050275;28;20351;-68
2021/07/23 00:55:42;;;;;;;20.02;15.02;;;;;;;21.33;57.91;95489.88;5048176;28;20033;-68
2021/07/23 00:58:09;;;;;;;17.02;15.50;;;;;;;21.25;58.09;95478.94;5048690;28;20090;-68
2021/07/23 01:00:36;;;;;;;16.75;15.10;;;;;;;21.18;58.14;95465.28;5055977;28;20079;-68
2021/07/23 01:03:03;;;;;;;16.15;14.65;;;;;;;21.08;58.54;95468.59;5067104;28;20016;-68
2021/07/23 01:05:28;;;;;;;18.10;16.25;;;;;;;21.15;58.25;95471.44;5070686;28;20103;-69
2021/07/23 01:07:53;;;;;;;17.08;15.55;;;;;;;21.15;58.43;95471.44;5068785;28;20136;-68
2021/07/23 01:10:19;;;;;;;17.45;15.48;;;;;;;21.07;58.76;95472.44;5068136;28;20516;-68
2021/07/23 01:12:44;;;;;;;17.80;16.20;;;;;;;21.12;58.98;95487.59;5067848;28;20501;-70
2021/07/23 01:15:10;;;;;;;19.17;16.42;;;;;;;21.06;59.57;95481.72;5064835;28;20037;-69
2021/07/23 01:17:37;;;;;;;17.05;15.32;;;;;;;21.02;59.31;95480.88;5050639;28;20025;-69
2021/07/23 01:20:15;;;;;;;19.38;17.38;;;;;;;21.07;59.54;95488.69;5067892;28;20036;-69
2021/07/23 01:22:41;;;;;;;18.33;16.00;;;;;;;21.07;59.50;95485.97;5068083;28;20044;-68
2021/07/23 01:25:08;;;;;;;18.98;16.92;;;;;;;20.95;59.37;95475.34;5067813;28;20040;-69
2021/07/23 01:27:39;;;;;;;20.48;18.30;;;;;;;20.99;59.77;95492.44;5063418;28;20374;-68
2021/07/23 01:30:08;;;;;;;17.90;16.03;;;;;;;20.91;59.92;95477.22;5067304;28;20681;-69
2021/07/23 01:32:35;;;;;;;18.70;16.95;;;;;;;20.80;60.08;95470.88;5068612;28;20020;-69
2021/07/23 01:35:00;;;;;;;19.20;17.05;;;;;;;20.76;60.24;95474.28;5047956;28;20033;-68
2021/07/23 01:37:26;;;;;;;19.38;17.33;;;;;;;20.73;60.49;95480.41;5062616;28;20120;-68
2021/07/23 01:39:53;;;;;;;20.77;18.52;;;;;;;20.73;60.33;95476.94;5068406;28;20036;-68
2021/07/23 01:42:18;;;;;;;19.25;17.42;;;;;;;20.73;60.46;95480.41;5062028;28;20091;-69
2021/07/23 01:44:43;;;;;;;20.27;18.25;;;;;;;20.57;60.75;95468.13;5048289;28;20033;-69
2021/07/23 01:47:09;;;;;;;20.90;17.52;;;;;;;20.56;61.13;95480.09;5050264;28;20036;-68
2021/07/23 01:49:34;;;;;;;19.73;16.30;;;;;;;20.49;61.44;95478.84;5048300;28;20091;-68
2021/07/23 01:52:00;;;;;;;19.38;16.48;;;;;;;20.45;61.28;95466.38;5058935;28;20504;-69
2021/07/23 01:54:25;;;;;;;17.33;15.73;;;;;;;20.43;61.05;95460.56;5067970;28;20452;-69
2021/07/23 01:56:50;;;;;;;19.33;15.95;;;;;;;20.42;61.25;95467.06;5066804;28;20029;-69
2021/07/23 01:59:16;;;;;;;19.63;17.70;;;;;;;20.33;61.04;95445.72;5070560;28;20367;-69
2021/07/23 02:01:41;;;;;;;16.63;15.02;;;;;;;20.35;60.99;95448.03;5068221;28;20394;-68
2021/07/23 02:04:07;;;;;;;17.55;15.88;;;;;;;20.34;61.30;95460.00;5056656;28;20045;-69
2021/07/23 02:06:32;;;;;;;17.45;15.85;;;;;;;20.37;61.26;95470.06;5054830;28;20075;-69
2021/07/23 02:08:57;;;;;;;17.70;16.10;;;;;;;20.18;61.00;95435.78;5066279;28;20024;-69
2021/07/23 02:11:22;;;;;;;18.90;16.63;;;;;;;20.19;61.06;95440.81;5049425;28;20078;-68
2021/07/23 02:13:48;;;;;;;19.95;16.55;;;;;;;20.24;61.18;95464.06;5045943;28;20048;-68
2021/07/23 02:16:13;;;;;;;22.15;18.15;;;;;;;20.25;61.15;95471.03;5048012;28;20036;-68
2021/07/23 02:18:38;;;;;;;17.55;15.75;;;;;;;20.24;61.13;95462.13;5055718;28;20040;-68
2021/07/23 02:21:07;;;;;;;17.85;15.77;;;;;;;20.19;61.09;95461.66;5068027;28;20791;-66
2021/07/23 02:23:33;;;;;;;18.25;16.42;;;;;;;20.14;61.06;95449.22;5069444;28;20099;-69
2021/07/23 02:25:58;;;;;;;18.80;16.88;;;;;;;20.20;61.50;95476.72;5066690;28;20048;-68
2021/07/23 02:28:23;;;;;;;17.92;16.25;;;;;;;20.04;62.01;95468.69;5067719;28;20133;-69
2021/07/23 02:30:49;;;;;;;21.75;17.10;;;;;;;20.01;61.94;95464.00;5067752;28;20162;-69
2021/07/23 02:33:14;;;;;;;17.58;15.98;;;;;;;19.98;62.06;95467.44;5065911;28;20076;-69
2021/07/23 02:35:39;;;;;;;18.95;17.08;;;;;;;19.97;62.13;95461.25;5069784;28;20263;-66
2021/07/23 02:38:05;;;;;;;19.00;16.90;;;;;;;19.97;62.12;95466.66;5067531;28;20537;-67
2021/07/23 02:40:30;;;;;;;18.58;16.77;;;;;;;20.04;62.21;95473.31;5064490;28;20383;-67
2021/07/23 02:42:55;;;;;;;18.73;16.63;;;;;;;19.90;62.64;95471.09;5066372;28;20440;-67
2021/07/23 02:45:21;;;;;;;18.65;16.15;;;;;;;19.90;62.47;95466.50;5068508;28;20490;-66
2021/07/23 02:47:47;;;;;;;21.88;18.00;;;;;;;20.09;62.25;95484.63;5070910;28;20692;-67
2021/07/23 02:50:12;;;;;;;19.65;17.70;;;;;;;20.13;62.14;95473.88;5071759;28;20106;-66
2021/07/23 02:52:37;;;;;;;19.50;16.70;;;;;;;20.05;62.33;95467.56;5070615;28;20025;-67
2021/07/23 02:55:04;;;;;;;18.55;16.80;;;;;;;20.08;62.09;95461.44;5069590;28;20033;-67
2021/07/23 02:57:29;;;;;;;18.83;17.13;;;;;;;20.22;61.78;95477.16;5070132;28;20475;-67
2021/07/23 02:59:54;;;;;;;16.98;15.38;;;;;;;20.20;61.51;95463.97;5071339;28;20111;-67
2021/07/23 03:02:20;;;;;;;17.23;15.63;;;;;;;20.38;61.18;95474.34;5072458;28;20424;-68
2021/07/23 03:04:45;;;;;;;16.05;14.45;;;;;;;20.34;61.26;95465.41;5054531;28;20444;-67
2021/07/23 03:07:10;;;;;;;17.35;15.75;;;;;;;20.37;60.88;95453.88;5061645;28;20072;-67
2021/07/23 03:09:36;;;;;;;18.10;16.33;;;;;;;20.45;60.63;95460.97;5069543;28;20111;-68
2021/07/23 03:12:01;;;;;;;16.50;15.00;;;;;;;20.57;60.30;95455.41;5070103;28;20028;-68
2021/07/23 03:14:27;;;;;;;16.60;15.10;;;;;;;20.45;60.54;95463.66;5086766;28;20059;-68
2021/07/23 03:16:52;;;;;;;17.00;14.75;;;;;;;20.59;60.41;95460.47;5090891;28;20040;-67
2021/07/23 03:19:17;;;;;;;16.90;15.30;;;;;;;20.60;60.05;95449.28;5091027;28;20048;-68
2021/07/23 03:21:43;;;;;;;18.30;16.25;;;;;;;20.94;59.46;95465.69;5090979;28;20389;-69
2021/07/23 03:24:08;;;;;;;16.85;14.48;;;;;;;20.95;59.17;95454.50;5087182;28;20071;-68
2021/07/23 03:26:34;;;;;;;17.73;16.02;;;;;;;21.02;58.94;95464.66;5064239;28;20033;-68
2021/07/23 03:28:59;;;;;;;17.00;15.40;;;;;;;20.92;59.02;95449.03;5050632;28;20029;-68
2021/07/23 03:31:24;;;;;;;17.80;16.13;;;;;;;20.97;58.87;95462.25;5064461;28;20048;-68
2021/07/23 03:33:51;;;;;;;17.85;16.00;;;;;;;20.83;58.46;95443.91;5069999;28;20033;-68
2021/07/23 03:36:16;;;;;;;16.10;14.48;;;;;;;20.81;58.44;95453.50;5070522;28;20071;-68
2021/07/23 03:38:41;;;;;;;15.68;14.00;;;;;;;20.68;58.41;95434.00;5072446;28;20048;-68
2021/07/23 03:41:07;;;;;;;18.15;16.27;;;;;;;20.80;58.36;95457.34;5050125;28;20425;-68
2021/07/23 03:43:32;;;;;;;16.55;14.52;;;;;;;20.63;58.56;95443.19;5063387;28;20035;-68
2021/07/23 03:45:59;;;;;;;17.00;15.48;;;;;;;20.57;58.55;95439.19;5070359;28;20466;-68
2021/07/23 03:48:24;;;;;;;17.13;14.30;;;;;;;20.58;58.73;95456.22;5070187;28;20572;-68
2021/07/23 03:50:50;;;;;;;18.17;15.85;;;;;;;20.52;58.89;95447.59;5069903;28;20024;-69
2021/07/23 03:53:15;;;;;;;16.60;14.90;;;;;;;20.46;59.03;95436.31;5071580;28;20077;-68
2021/07/23 03:55:41;;;;;;;16.02;14.40;;;;;;;20.45;59.14;95442.84;5053726;28;20116;-68
2021/07/23 03:58:06;;;;;;;16.65;15.25;;;;;;;20.30;59.35;95437.53;5048801;28;20560;-69
2021/07/23 04:00:31;;;;;;;17.20;15.60;;;;;;;20.41;59.52;95457.41;5054816;28;20431;-68
2021/07/23 04:02:58;;;;;;;15.20;13.95;;;;;;;20.32;59.71;95443.34;5068278;28;20025;-68
2021/07/23 04:05:23;;;;;;;17.10;15.15;;;;;;;20.32;59.73;95446.84;5071835;28;20021;-68
2021/07/23 04:07:49;;;;;;;17.80;15.38;;;;;;;20.42;59.62;95442.75;5069848;28;20032;-68
2021/07/23 04:10:14;;;;;;;18.55;16.60;;;;;;;20.49;59.38;95446.41;5069619;28;20037;-68
2021/07/23 04:12:39;;;;;;;16.27;14.48;;;;;;;20.50;59.09;95428.28;5059655;28;20456;-68
2021/07/23 04:15:09;;;;;;;16.27;14.73;;;;;;;20.57;58.81;95425.69;5049618;28;20776;-68
2021/07/23 04:17:35;;;;;;;17.55;15.93;;;;;;;20.76;58.73;95444.53;5051545;28;20025;-68
2021/07/23 04:20:00;;;;;;;19.08;16.13;;;;;;;20.80;58.59;95435.72;5049851;28;20048;-68
2021/07/23 04:22:26;;;;;;;17.08;15.43;;;;;;;20.92;58.33;95451.75;5048862;28;20556;-68
2021/07/23 04:24:51;;;;;;;15.05;13.65;;;;;;;21.02;58.27;95446.50;5049245;28;20115;-68
2021/07/23 04:27:16;;;;;;;16.52;14.70;;;;;;;21.10;57.71;95439.28;5053247;28;20072;-68
2021/07/23 04:29:46;;;;;;;17.10;14.70;;;;;;;21.27;57.31;95446.88;5071164;28;20382;-68
2021/07/23 04:32:12;;;;;;;16.77;14.07;;;;;;;21.39;56.79;95447.81;5067929;28;20811;-67
2021/07/23 04:34:37;;;;;;;17.10;15.45;;;;;;;21.50;56.54;95446.84;5069394;28;20041;-68
2021/07/23 04:37:03;;;;;;;15.73;14.05;;;;;;;21.65;56.52;95449.72;5058383;28;20041;-68
2021/07/23 04:39:28;;;;;;;17.92;16.23;;;;;;;21.83;55.87;95463.50;5055189;28;20033;-68
2021/07/23 04:41:54;;;;;;;17.73;16.02;;;;;;;21.87;55.73;95453.50;5068370;28;20036;-68
2021/07/23 04:44:19;;;;;;;16.33;14.63;;;;;;;;;;5070447;28;20059;-68
2021/07/23 04:46:44;;;;;;;16.03;14.37;;;;;;;21.78;55.64;95456.47;5050996;28;20076;-69
2021/07/23 04:49:09;;;;;;;17.55;15.75;;;;;;;21.65;56.01;95431.56;5047691;28;20458;-68
2021/07/23 04:51:35;;;;;;;15.70;14.05;;;;;;;21.66;56.28;95427.72;5055562;28;20127;-68
2021/07/23 04:54:00;;;;;;;15.45;13.90;;;;;;;21.72;56.35;95452.53;5068403;28;20024;-68
2021/07/23 04:56:26;;;;;;;15.77;14.38;;;;;;;21.76;56.44;95464.19;5070110;28;20020;-68
2021/07/23 04:58:51;;;;;;;16.88;15.15;;;;;;;21.71;56.38;95450.97;5068159;28;20071;-69
2021/07/23 05:01:17;;;;;;;16.67;14.77;;;;;;;21.65;56.43;95438.88;5087596;28;20025;-68
2021/07/23 05:03:43;;;;;;;15.80;14.50;;;;;;;21.67;56.61;95445.50;5088331;28;20035;-68
2021/07/23 05:06:08;;;;;;;16.77;15.05;;;;;;;21.87;56.09;95461.59;5088767;28;20039;-68
2021/07/23 05:08:34;;;;;;;14.85;13.45;;;;;;;21.96;56.20;95457.47;5089800;28;20107;-68
2021/07/23 05:11:01;;;;;;;14.15;12.90;;;;;;;22.16;56.22;95460.84;5088669;28;20032;-69
2021/07/23 05:13:30;;;;;;;14.93;13.48;;;;;;;22.29;55.83;95458.63;5074884;28;20124;-68
2021/07/23 05:15:55;;;;;;;15.25;13.85;;;;;;;22.52;55.24;95464.69;5086635;28;20461;-69
2021/07/23 05:18:21;;;;;;;14.38;12.90;;;;;;;22.65;54.55;95462.47;5088804;28;20134;-69
2021/07/23 05:20:47;;;;;;;14.77;13.35;;;;;;;22.82;54.43;95467.25;5088646;28;20023;-69
2021/07/23 05:23:12;;;;;;;17.50;13.45;;;;;;;22.80;54.62;95447.09;5090105;28;20020;-68
2021/07/23 05:25:39;;;;;;;13.98;12.60;;;;;;;23.12;53.40;95465.59;5088330;28;20074;-72
2021/07/23 05:28:07;;;;;;;16.30;14.75;;;;;;;23.23;53.31;95461.03;5060739;28;20103;-77
2021/07/23 05:30:33;;;;;;;14.68;13.27;;;;;;;23.37;53.11;95463.06;5048998;28;20498;-67
2021/07/23 05:32:58;;;;;;;13.82;12.57;;;;;;;23.34;52.94;95440.19;5047412;28;20112;-68
2021/07/23 05:35:23;;;;;;;15.82;14.43;;;;;;;23.57;52.82;95461.63;5052669;28;20467;-74
2021/07/23 05:37:50;;;;;;;16.35;14.38;;;;;;;23.53;52.84;95458.09;5047758;28;20046;-73
2021/07/23 05:40:16;;;;;;;15.50;13.57;;;;;;;23.52;52.76;95451.13;5060598;28;20044;-74
2021/07/23 05:42:42;;;;;;;16.38;14.52;;;;;;;23.42;52.46;95432.84;5065749;28;20040;-74
2021/07/23 05:45:07;;;;;;;16.90;15.13;;;;;;;23.41;52.94;95434.00;5076511;28;20098;-74
2021/07/23 05:47:32;;;;;;;14.90;13.52;;;;;;;23.43;53.14;95443.31;5070671;28;20101;-74
2021/07/23 05:49:58;;;;;;;16.58;13.77;;;;;;;23.61;52.91;95470.56;5068746;28;20044;-79
2021/07/23 05:52:23;;;;;;;15.93;14.00;;;;;;;23.70;53.27;95467.53;5068277;28;20029;-75
2021/07/23 05:54:48;;;;;;;15.30;13.75;;;;;;;23.73;52.97;95469.50;5067280;28;20439;-74
2021/07/23 05:57:14;;;;;;;21.92;15.05;;;;;;;23.79;53.10;95457.09;5066109;28;20044;-76
2021/07/23 05:59:39;;;;;;;14.82;13.45;;;;;;;23.92;52.94;95458.34;5066919;28;20119;-75
2021/07/23 06:02:05;;;;;;;15.30;13.68;;;;;;;23.78;52.78;95414.81;5067909;28;20041;-74
2021/07/23 06:04:30;;;;;;;16.67;14.98;;;;;;;24.21;52.83;95458.44;5069887;28;20040;-80
2021/07/23 06:06:57;;;;;;;15.57;14.18;;;;;;;24.37;52.59;95456.19;5069867;28;20037;-79
2021/07/23 06:09:23;;;;;;;14.27;13.05;;;;;;;24.36;52.49;95465.50;5069660;28;20097;-79
2021/07/23 06:11:48;;;;;;;15.77;13.23;;;;;;;24.22;52.12;95411.09;5068631;28;20049;-77
2021/07/23 06:14:14;;;;;;;18.95;14.68;;;;;;;24.25;52.24;95454.56;5070872;28;20021;-78
2021/07/23 06:16:41;;;;;;;20.27;15.32;;;;;;;23.86;53.77;95459.88;5067922;28;20041;-79
2021/07/23 06:19:06;;;;;;;16.25;14.75;;;;;;;24.15;53.55;95476.28;5069876;28;20398;-79
2021/07/23 06:21:32;;;;;;;20.85;14.95;;;;;;;23.63;54.29;95460.13;5073353;28;20035;-78
2021/07/23 06:23:57;;;;;;;17.52;15.70;;;;;;;23.56;54.97;95449.22;5072147;28;20365;-76
2021/07/23 06:26:22;;;;;;;16.80;15.10;;;;;;;22.99;56.32;95481.41;5072949;28;20063;-76
2021/07/23 06:28:48;;;;;;;18.90;15.52;;;;;;;22.68;57.16;95421.06;5063283;28;20048;-77
2021/07/23 06:31:14;;;;;;;16.25;14.45;;;;;;;23.19;56.21;95474.59;5063983;28;20127;-77
2021/07/23 06:33:40;;;;;;;16.88;14.70;;;;;;;23.51;55.75;95482.16;5071988;28;20501;-74
2021/07/23 06:36:06;;;;;;;21.25;15.50;;;;;;;24.05;54.44;95464.97;5072528;28;20107;-77
2021/07/23 06:38:32;;;;;;;16.77;15.20;;;;;;;23.58;55.25;95469.38;5074613;28;20052;-77
2021/07/23 06:40:57;;;;;;;17.10;15.27;;;;;;;23.91;54.52;95472.31;5072609;28;20032;-79
2021/07/23 06:43:22;;;;;;;20.65;15.93;;;;;;;23.74;54.03;95474.53;5058308;28;20051;-78
2021/07/23 06:45:52;;;;;;;17.67;15.77;;;;;;;24.21;52.36;95451.06;5060969;28;20033;-79
2021/07/23 06:48:18;;;;;;;17.08;14.93;;;;;;;24.46;52.46;95463.97;5072914;28;20047;-78
2021/07/23 06:50:43;;;;;;;17.38;15.60;;;;;;;24.54;51.65;95436.41;5074656;28;20024;-79
2021/07/23 06:53:08;;;;;;;15.98;14.48;;;;;;;24.83;51.62;95456.25;5071072;28;20116;-78
2021/07/23 06:55:42;;;;;;;16.52;14.77;;;;;;;25.08;51.05;95458.22;5073103;28;20036;-78
2021/07/23 06:58:07;;;;;;;17.02;15.27;;;;;;;25.37;50.70;95475.31;5060197;28;20059;-76
2021/07/23 07:00:32;;;;;;;18.50;15.57;;;;;;;25.43;49.86;95473.75;5051286;28;20554;-74
2021/07/23 07:02:58;;;;;;;16.25;14.65;;;;;;;25.14;49.80;95457.44;5050824;28;20025;-74
2021/07/23 07:05:24;;;;;;;15.93;14.40;;;;;;;25.20;50.52;95455.09;5052999;28;20025;-74
2021/07/23 07:07:50;;;;;;;19.98;15.57;;;;;;;25.45;50.00;95459.75;5066419;28;20037;-74
2021/07/23 07:10:15;;;;;;;15.63;14.32;;;;;;;24.80;50.59;95461.69;5070870;28;20098;-73
2021/07/23 07:12:40;;;;;;;16.77;15.02;;;;;;;24.71;51.22;95459.34;5069921;28;20048;-73
2021/07/23 07:15:06;;;;;;;16.75;15.15;;;;;;;24.66;51.56;95450.78;5070880;28;20151;-75
2021/07/23 07:17:32;;;;;;;16.67;15.02;;;;;;;25.11;50.68;95439.16;5073268;28;20052;-73
2021/07/23 07:20:00;;;;;;;16.67;15.05;;;;;;;25.53;49.80;95442.22;5070117;28;20534;-75
2021/07/23 07:22:26;;;;;;;16.42;14.85;;;;;;;25.77;49.15;95456.97;5070687;28;20059;-74
2021/07/23 07:24:53;;;;;;;15.75;14.35;;;;;;;25.83;48.95;95445.25;5069505;28;20056;-74
2021/07/23 07:27:20;;;;;;;17.65;14.15;;;;;;;26.21;48.93;95459.13;5052383;28;20109;-76
2021/07/23 07:29:45;;;;;;;15.65;14.23;;;;;;;26.38;47.94;95447.34;5064571;28;20021;-70
2021/07/23 07:32:11;;;;;;;15.98;13.98;;;;;;;26.53;46.92;95448.06;5051187;28;20041;-63
2021/07/23 07:34:36;;;;;;;17.00;13.65;;;;;;;26.57;46.26;95428.97;5046388;22;20088;-63
2021/07/23 07:37:03;;;;;;;14.63;13.15;;;;;;;26.53;45.58;95406.38;5030408;28;20033;-62
2021/07/23 07:39:30;;;;;;;15.48;14.10;;;;;;;26.68;44.88;95402.38;5028384;28;20480;-62
2021/07/23 07:41:55;;;;;;;16.05;14.40;;;;;;;26.59;44.52;95434.78;5027924;28;20033;-60
2021/07/23 07:44:21;;;;;;;15.73;14.20;;;;;;;25.18;46.22;95378.47;5011663;28;20026;-60
2021/07/23 07:46:46;;;;;;;15.40;13.80;;;;;;;25.41;46.64;95403.34;5010120;28;20059;-60
2021/07/23 07:49:11;;;;;;;14.80;13.38;;;;;;;26.01;46.52;95452.59;5010677;28;20084;-61
2021/07/23 07:51:37;;;;;;;15.18;13.15;;;;;;;26.48;46.01;95437.56;5003937;28;20129;-60
2021/07/23 07:54:02;;;;;;;15.05;13.52;;;;;;;26.46;44.98;95404.44;4990915;28;20044;-62
2021/07/23 07:56:27;;;;;;;16.42;14.80;;;;;;;26.63;45.85;95441.00;5012083;28;20057;-62
2021/07/23 07:58:53;;;;;;;15.30;13.90;;;;;;;26.29;45.77;95418.97;5009696;28;20124;-60
2021/07/23 08:01:19;;;;;;;15.85;14.25;;;;;;;26.78;45.32;95444.41;5009924;28;20038;-62
2021/07/23 08:03:44;;;;;;;15.35;14.00;;;;;;;26.94;45.12;95433.75;5008787;28;20042;-59
2021/07/23 08:06:20;;;;;;;16.23;14.73;;;;;;;26.14;45.70;95427.22;5010054;28;20507;-60
2021/07/23 08:08:45;;;;;;;14.95;13.45;;;;;;;26.86;44.76;95449.38;5011850;28;20423;-61
2021/07/23 08:11:11;;;;;;;14.77;13.50;;;;;;;27.20;44.88;95446.81;5009928;28;20081;-61
2021/07/23 08:13:36;;;;;;;15.75;14.02;;;;;;;27.27;44.48;95429.56;5009061;28;20054;-61
2021/07/23 08:16:04;;;;;;;18.02;15.32;;;;;;;26.25;45.83;95454.41;5008805;28;20037;-61
2021/07/23 08:18:29;;;;;;;25.48;14.68;;;;;;;26.05;46.49;95448.69;5008064;28;20137;-62
2021/07/23 08:20:55;;;;;;;15.43;13.82;;;;;;;25.74;46.72;95404.00;5008681;28;20097;-61
2021/07/23 08:23:21;;;;;;;15.15;13.65;;;;;;;26.18;45.31;95378.13;5011154;28;20080;-61
2021/07/23 08:25:49;;;;;;;14.43;13.13;;;;;;;26.70;45.52;95408.19;5007967;28;20046;-61
2021/07/23 08:28:18;;;;;;;15.90;14.30;;;;;;;26.62;45.71;95431.25;5008967;28;20050;-59
2021/07/23 08:30:43;;;;;;;16.65;13.60;;;;;;;26.84;44.85;95397.16;5009303;28;20049;-61
2021/07/23 08:33:09;;;;;;;14.25;13.13;;;;;;;27.42;44.76;95436.44;5007565;28;20061;-64
2021/07/23 08:35:36;;;;;;;14.13;12.65;;;;;;;27.57;43.70;95425.38;5011693;28;20101;-67
2021/07/23 08:38:02;;;;;;;14.20;13.02;;;;;;;27.97;42.15;95442.91;5009429;28;20410;-61
2021/07/23 08:40:28;;;;;;;13.25;12.20;;;;;;;28.19;41.61;95432.47;5008104;28;20030;-63
2021/07/23 08:42:53;;;;;;;13.82;12.63;;;;;;;28.09;39.87;95425.94;5007734;28;20137;-64
2021/07/23 08:45:19;;;;;;;14.07;12.57;;;;;;;27.65;40.61;95435.06;5009368;28;20125;-63
2021/07/23 08:47:44;;;;;;;13.32;12.15;;;;;;;28.01;41.08;95434.66;5011366;28;20042;-64
2021/07/23 08:50:10;;;;;;;13.95;12.20;;;;;;;27.88;39.79;95435.19;5009348;28;20046;-63
2021/07/23 08:52:50;;;;;;;14.60;13.35;;;;;;;28.13;39.17;95434.88;5007656;28;20034;-65
2021/07/23 08:55:18;;;;;;;13.77;12.55;;;;;;;28.16;39.83;95411.44;5007923;28;20503;-62
2021/07/23 08:57:44;;;;;;;14.93;12.93;;;;;;;28.44;38.97;95430.19;5008889;28;20567;-64
2021/07/23 09:00:17;;;;;;;14.20;12.40;;;;;;;28.29;39.26;95406.94;5001033;28;20038;-63
2021/07/23 09:02:56;;;;;;;15.63;14.23;;;;;;;28.44;39.56;95438.41;5010465;28;20383;-62
2021/07/23 09:05:28;;;;;;;26.50;19.40;;;;;;;28.01;39.57;95361.63;5009616;28;20120;-64
2021/07/23 09:07:57;;;;;;;36.65;26.95;;;;;;;28.18;39.69;95442.63;5007622;28;20053;-63
2021/07/23 09:10:28;;;;;;;20.52;17.35;;;;;;;28.21;39.73;95435.59;5008590;28;20104;-63
2021/07/23 09:12:56;;;;;;;38.80;30.27;;;;;;;28.30;40.21;95435.81;5007662;28;20053;-63
2021/07/23 09:15:37;;;;;;;155.48;101.78;;;;;;;28.65;41.19;95428.34;5008596;28;20038;-63
2021/07/23 09:18:05;;;;;;;36.97;27.98;;;;;;;28.75;40.03;95430.13;5007483;28;20037;-65
2021/07/23 09:20:31;;;;;;;38.17;27.40;;;;;;;28.57;39.00;95405.78;5010746;28;20022;-61
2021/07/23 09:23:01;;;;;;;42.30;34.28;;;;;;;28.23;41.31;95367.56;5006737;28;20030;-66
2021/07/23 09:25:37;;;;;;;16.65;15.05;;;;;;;28.89;39.29;95418.97;5008271;28;20038;-67
2021/07/23 09:28:19;;;;;;;94.75;67.18;;;;;;;29.11;41.47;95419.41;5008047;28;20050;-68
2021/07/23 09:30:44;;;;;;;15.48;14.15;;;;;;;28.87;38.66;95406.88;5007822;28;20120;-67
2021/07/23 09:33:10;;;;;;;18.05;16.40;;;;;;;28.90;38.94;95425.97;5004019;28;24926;-67
2021/07/23 09:35:36;;;;;;;17.40;15.85;;;;;;;28.70;39.22;95414.19;4990853;28;20027;-67
2021/07/23 09:38:02;;;;;;;16.40;14.90;;;;;;;28.53;39.24;95423.44;5006532;28;20141;-66
2021/07/23 09:40:46;;;;;;;18.27;14.75;;;;;;;28.73;40.34;95422.34;5006630;28;20041;-68
2021/07/23 09:43:11;;;;;;;16.25;14.75;;;;;;;28.88;39.84;95406.47;5007507;28;20511;-67
2021/07/23 09:45:37;;;;;;;15.30;13.95;;;;;;;29.03;38.98;95407.03;5022378;28;20073;-67
2021/07/23 09:48:12;;;;;;;14.13;13.02;;;;;;;29.10;37.72;95404.16;5026735;28;20486;-67
2021/07/23 09:50:47;;;;;;;14.30;12.68;;;;;;;29.08;38.42;95392.09;5029688;28;20022;-67
2021/07/23 09:53:19;;;;;;;16.42;15.13;;;;;;;29.41;38.37;95388.34;5027555;28;20076;-66
2021/07/23 09:55:46;;;;;;;16.30;14.57;;;;;;;29.48;36.63;95384.69;5031023;28;20088;-64
2021/07/23 09:58:21;;;;;;;13.48;12.27;;;;;;;29.07;36.65;95394.03;5024334;28;20034;-66
2021/07/23 10:01:00;;;;;;;14.32;13.13;;;;;;;29.51;35.44;95381.88;5012057;28;20539;-67
2021/07/23 10:03:29;;;;;;;13.82;12.43;;;;;;;29.92;36.50;95393.66;5011701;28;20092;-66
2021/07/23 10:06:03;;;;;;;17.40;14.80;;;;;;;29.85;36.49;95336.22;5012107;28;20018;-66
2021/07/23 10:08:32;;;;;;;13.30;12.23;;;;;;;30.34;35.05;95386.50;5014072;28;20076;-66
2021/07/23 10:11:00;;;;;;;13.85;12.60;;;;;;;30.44;34.49;95360.78;5012421;28;20034;-66
2021/07/23 10:13:29;;;;;;;19.02;17.10;;;;;;;30.70;37.23;95378.22;5011144;28;20046;-67
2021/07/23 10:15:55;;;;;;;18.35;16.63;;;;;;;31.11;35.68;95387.81;5028675;28;20045;-65
2021/07/23 10:18:22;;;;;;;14.15;12.85;;;;;;;31.33;33.95;95363.34;5047200;28;20044;-66
2021/07/23 10:20:48;;;;;;;18.02;16.20;;;;;;;32.00;34.93;95384.69;5033845;28;20641;-66
2021/07/23 10:23:19;;;;;;;16.00;14.48;;;;;;;32.01;33.80;95339.47;5031529;28;20140;-66
2021/07/23 10:25:46;;;;;;;;;;;;;;;31.52;32.11;95386.38;5032198;28;20045;-66
2021/07/23 10:28:11;;;;;;;14.32;12.88;;;;;;;31.91;33.37;95370.81;5030320;28;19921;-65
2021/07/23 10:30:39;;;;;;;13.88;12.80;;;;;;;32.43;31.93;95384.19;5029978;28;20091;-66
2021/07/23 10:33:05;;;;;;;13.32;12.23;;;;;;;32.73;32.20;95374.59;5028289;28;20034;-66
2021/07/23 10:35:32;;;;;;;14.13;12.85;;;;;;;32.69;30.45;95348.38;5013536;28;20073;-66
2021/07/23 10:37:59;;;;;;;13.35;12.05;;;;;;;32.87;29.57;95359.59;5028968;28;20525;-66
2021/07/23 10:40:39;;;;;;;12.32;11.38;;;;;;;32.97;29.16;95350.25;5018439;28;20030;-66
2021/07/23 10:43:32;;;;;;;12.63;11.38;;;;;;;33.16;31.43;95367.69;5017565;28;20129;-66
2021/07/23 10:45:58;;;;;;;12.68;11.65;;;;;;;33.15;30.51;95360.66;5011117;28;20710;-66
2021/07/23 10:48:47;;;;;;;13.45;11.55;;;;;;;33.33;31.10;95338.75;5011440;28;20042;-65
2021/07/23 10:51:45;;;;;;;12.98;11.88;;;;;;;33.76;29.99;95356.53;5011463;28;20104;-66
2021/07/23 10:54:11;;;;;;;12.20;11.20;;;;;;;33.71;30.01;95323.25;5011042;28;20084;-66
2021/07/23 10:57:09;;;;;;;13.50;12.30;;;;;;;34.26;29.95;95356.69;5013343;28;20388;-66
2021/07/23 10:59:40;;;;;;;11.88;10.75;;;;;;;34.35;26.31;95349.22;5001421;28;20446;-66
2021/07/23 11:02:15;;;;;;;11.35;10.32;;;;;;;34.24;27.19;95342.56;5010771;28;20117;-66
2021/07/23 11:04:42;;;;;;;12.18;11.18;;;;;;;33.69;27.22;95273.28;5011134;28;20069;-65
2021/07/23 11:07:09;;;;;;;11.93;11.07;;;;;;;33.61;27.42;95320.44;5010174;28;20040;-66
2021/07/23 11:09:37;;;;;;;11.63;10.63;;;;;;;33.75;27.21;95345.97;5010814;28;20396;-66
2021/07/23 11:12:20;;;;;;;11.98;10.85;;;;;;;34.08;27.88;95332.53;5010922;28;20029;-66
2021/07/23 11:14:57;;;;;;;11.77;10.60;;;;;;;33.67;28.91;95319.84;5012250;28;20037;-66
2021/07/23 11:17:24;;;;;;;11.50;10.60;;;;;;;33.50;28.85;95325.56;4991805;28;20030;-66